Moseley, Virginia
Current Conditions -  °F | °C
As of 5:54 AM on Friday 24 Oct 2014 (Local Time) from KRIC Reporting Station
Clear Clear  
Wind Chill: 10°   Ceiling: Unl
Heat Index: 10°   Visibility: 10mi
Dew Point:   Wind: 5mph
Humidity: 74%   Direction: 310°NW
Pressure: 29.98"   Gusts: NA
Location:  37.48°N, 77.78°W
Report Text: KRIC 240954Z 31004KT 10SM CLR 10/06 A2998 RMK AO2 SLP155 T01000056
Loading
Personal Weather Stations






























Interactive Weather Map
Tropical Storm Tracking
New forecast layout! Learn more

10-Day Weather Forecast

Advertisements
Track Severe Weather on mobile